sensor_id;sensor_type;location;lat;lon;timestamp;P1;durP1;ratioP1;P2;durP2;ratioP2
37379;SDS011;23252;-33.992;18.480;2023-06-05T00:02:19;18.65;;;2.40;;
37379;SDS011;23252;-33.992;18.480;2023-06-05T00:04:45;15.82;;;2.47;;
37379;SDS011;23252;-33.992;18.480;2023-06-05T00:07:12;10.93;;;2.33;;
37379;SDS011;23252;-33.992;18.480;2023-06-05T00:09:38;9.85;;;1.55;;
37379;SDS011;23252;-33.992;18.480;2023-06-05T00:12:06;10.15;;;2.35;;
37379;SDS011;23252;-33.992;18.480;2023-06-05T00:14:33;9.60;;;1.65;;
37379;SDS011;23252;-33.992;18.480;2023-06-05T00:17:02;11.73;;;2.50;;
37379;SDS011;23252;-33.992;18.480;2023-06-05T00:19:29;11.15;;;2.08;;
37379;SDS011;23252;-33.992;18.480;2023-06-05T00:21:56;18.48;;;2.88;;
37379;SDS011;23252;-33.992;18.480;2023-06-05T00:24:22;10.17;;;1.90;;
37379;SDS011;23252;-33.992;18.480;2023-06-05T00:26:49;18.88;;;2.67;;
37379;SDS011;23252;-33.992;18.480;2023-06-05T00:29:16;13.53;;;2.50;;
37379;SDS011;23252;-33.992;18.480;2023-06-05T00:31:43;9.05;;;2.00;;
37379;SDS011;23252;-33.992;18.480;2023-06-05T00:34:12;15.80;;;2.40;;
37379;SDS011;23252;-33.992;18.480;2023-06-05T00:36:39;11.50;;;2.63;;
37379;SDS011;23252;-33.992;18.480;2023-06-05T00:39:06;10.93;;;2.38;;
37379;SDS011;23252;-33.992;18.480;2023-06-05T00:41:32;9.37;;;2.43;;
37379;SDS011;23252;-33.992;18.480;2023-06-05T00:43:59;9.10;;;1.77;;
37379;SDS011;23252;-33.992;18.480;2023-06-05T00:46:25;12.20;;;2.33;;
37379;SDS011;23252;-33.992;18.480;2023-06-05T00:48:52;11.52;;;2.10;;
37379;SDS011;23252;-33.992;18.480;2023-06-05T00:51:19;13.37;;;2.30;;
37379;SDS011;23252;-33.992;18.480;2023-06-05T00:53:46;16.23;;;2.97;;
37379;SDS011;23252;-33.992;18.480;2023-06-05T00:56:13;10.77;;;2.00;;
37379;SDS011;23252;-33.992;18.480;2023-06-05T00:58:42;11.00;;;2.00;;
37379;SDS011;23252;-33.992;18.480;2023-06-05T01:03:36;14.68;;;3.22;;
37379;SDS011;23252;-33.992;18.480;2023-06-05T01:06:05;19.30;;;4.05;;
37379;SDS011;23252;-33.992;18.480;2023-06-05T01:08:35;17.58;;;3.83;;
37379;SDS011;23252;-33.992;18.480;2023-06-05T01:11:49;13.73;;;2.85;;
37379;SDS011;23252;-33.992;18.480;2023-06-05T01:14:16;16.67;;;3.47;;
37379;SDS011;23252;-33.992;18.480;2023-06-05T01:16:48;27.33;;;4.63;;
37379;SDS011;23252;-33.992;18.480;2023-06-05T01:19:22;14.77;;;4.25;;
37379;SDS011;23252;-33.992;18.480;2023-06-05T01:22:00;32.35;;;4.00;;
37379;SDS011;23252;-33.992;18.480;2023-06-05T01:24:26;18.05;;;3.88;;
37379;SDS011;23252;-33.992;18.480;2023-06-05T01:30:00;22.70;;;4.07;;
37379;SDS011;23252;-33.992;18.480;2023-06-05T01:32:49;18.80;;;3.97;;
37379;SDS011;23252;-33.992;18.480;2023-06-05T01:35:21;27.77;;;4.07;;
37379;SDS011;23252;-33.992;18.480;2023-06-05T01:37:53;24.00;;;4.80;;
37379;SDS011;23252;-33.992;18.480;2023-06-05T01:40:24;26.17;;;4.15;;
37379;SDS011;23252;-33.992;18.480;2023-06-05T01:42:52;23.02;;;4.05;;
37379;SDS011;23252;-33.992;18.480;2023-06-05T01:45:20;24.40;;;4.90;;
37379;SDS011;23252;-33.992;18.480;2023-06-05T01:47:47;26.77;;;4.53;;
37379;SDS011;23252;-33.992;18.480;2023-06-05T01:52:41;19.10;;;4.30;;
37379;SDS011;23252;-33.992;18.480;2023-06-05T01:55:14;18.80;;;4.43;;
37379;SDS011;23252;-33.992;18.480;2023-06-05T01:57:49;17.65;;;4.28;;
37379;SDS011;23252;-33.992;18.480;2023-06-05T02:02:46;28.88;;;4.95;;
37379;SDS011;23252;-33.992;18.480;2023-06-05T02:05:14;25.45;;;4.03;;
37379;SDS011;23252;-33.992;18.480;2023-06-05T02:07:46;22.02;;;4.60;;
37379;SDS011;23252;-33.992;18.480;2023-06-05T02:10:23;24.75;;;4.10;;
37379;SDS011;23252;-33.992;18.480;2023-06-05T02:12:50;15.90;;;3.47;;
37379;SDS011;23252;-33.992;18.480;2023-06-05T02:15:17;21.40;;;3.88;;
37379;SDS011;23252;-33.992;18.480;2023-06-05T02:17:44;21.52;;;3.70;;
37379;SDS011;23252;-33.992;18.480;2023-06-05T02:20:16;15.77;;;3.53;;
37379;SDS011;23252;-33.992;18.480;2023-06-05T02:22:43;17.63;;;3.25;;
37379;SDS011;23252;-33.992;18.480;2023-06-05T02:25:09;19.67;;;3.23;;
37379;SDS011;23252;-33.992;18.480;2023-06-05T02:27:37;20.75;;;3.00;;
37379;SDS011;23252;-33.992;18.480;2023-06-05T02:30:04;19.08;;;4.40;;
37379;SDS011;23252;-33.992;18.480;2023-06-05T02:34:58;17.10;;;3.30;;
37379;SDS011;23252;-33.992;18.480;2023-06-05T02:37:25;23.60;;;3.50;;
37379;SDS011;23252;-33.992;18.480;2023-06-05T02:39:52;17.00;;;3.33;;
37379;SDS011;23252;-33.992;18.480;2023-06-05T02:42:19;16.42;;;2.90;;
37379;SDS011;23252;-33.992;18.480;2023-06-05T02:44:46;22.70;;;3.72;;
37379;SDS011;23252;-33.992;18.480;2023-06-05T02:47:13;13.88;;;3.55;;
37379;SDS011;23252;-33.992;18.480;2023-06-05T02:49:40;22.43;;;3.40;;
37379;SDS011;23252;-33.992;18.480;2023-06-05T02:52:07;23.65;;;3.83;;
37379;SDS011;23252;-33.992;18.480;2023-06-05T02:54:33;17.80;;;3.33;;
37379;SDS011;23252;-33.992;18.480;2023-06-05T02:57:00;17.75;;;3.75;;
37379;SDS011;23252;-33.992;18.480;2023-06-05T02:59:26;15.15;;;3.28;;
37379;SDS011;23252;-33.992;18.480;2023-06-05T03:01:57;18.30;;;3.13;;
37379;SDS011;23252;-33.992;18.480;2023-06-05T03:04:23;20.77;;;3.92;;
37379;SDS011;23252;-33.992;18.480;2023-06-05T03:06:50;16.48;;;3.40;;
37379;SDS011;23252;-33.992;18.480;2023-06-05T03:09:18;19.77;;;3.97;;
37379;SDS011;23252;-33.992;18.480;2023-06-05T03:11:45;16.90;;;3.40;;
37379;SDS011;23252;-33.992;18.480;2023-06-05T03:14:11;21.38;;;4.10;;
37379;SDS011;23252;-33.992;18.480;2023-06-05T03:16:38;20.07;;;4.53;;
37379;SDS011;23252;-33.992;18.480;2023-06-05T03:19:09;19.65;;;3.28;;
37379;SDS011;23252;-33.992;18.480;2023-06-05T03:21:38;16.65;;;2.88;;
37379;SDS011;23252;-33.992;18.480;2023-06-05T03:24:09;24.05;;;3.15;;
37379;SDS011;23252;-33.992;18.480;2023-06-05T03:26:41;13.40;;;3.25;;
37379;SDS011;23252;-33.992;18.480;2023-06-05T03:29:09;15.45;;;2.95;;
37379;SDS011;23252;-33.992;18.480;2023-06-05T03:31:36;11.63;;;2.35;;
37379;SDS011;23252;-33.992;18.480;2023-06-05T03:34:03;20.05;;;3.50;;
37379;SDS011;23252;-33.992;18.480;2023-06-05T03:36:31;14.50;;;3.28;;
37379;SDS011;23252;-33.992;18.480;2023-06-05T03:39:03;20.00;;;3.63;;
37379;SDS011;23252;-33.992;18.480;2023-06-05T03:41:29;19.77;;;3.20;;
37379;SDS011;23252;-33.992;18.480;2023-06-05T03:43:56;15.47;;;3.27;;
37379;SDS011;23252;-33.992;18.480;2023-06-05T03:46:24;21.83;;;3.85;;
37379;SDS011;23252;-33.992;18.480;2023-06-05T03:48:54;29.13;;;4.18;;
37379;SDS011;23252;-33.992;18.480;2023-06-05T03:51:27;17.50;;;3.70;;
37379;SDS011;23252;-33.992;18.480;2023-06-05T03:53:55;28.80;;;3.92;;
37379;SDS011;23252;-33.992;18.480;2023-06-05T03:56:24;22.48;;;4.18;;
37379;SDS011;23252;-33.992;18.480;2023-06-05T03:58:59;17.17;;;3.78;;
37379;SDS011;23252;-33.992;18.480;2023-06-05T04:01:34;24.50;;;4.10;;
37379;SDS011;23252;-33.992;18.480;2023-06-05T04:04:04;24.27;;;4.35;;
37379;SDS011;23252;-33.992;18.480;2023-06-05T04:06:31;28.20;;;4.88;;
37379;SDS011;23252;-33.992;18.480;2023-06-05T04:08:58;20.38;;;4.97;;
37379;SDS011;23252;-33.992;18.480;2023-06-05T04:11:25;23.50;;;4.80;;
37379;SDS011;23252;-33.992;18.480;2023-06-05T04:13:55;24.77;;;6.22;;
37379;SDS011;23252;-33.992;18.480;2023-06-05T04:16:31;28.75;;;5.43;;
37379;SDS011;23252;-33.992;18.480;2023-06-05T04:18:59;32.95;;;6.82;;
37379;SDS011;23252;-33.992;18.480;2023-06-05T04:21:26;21.20;;;6.32;;
37379;SDS011;23252;-33.992;18.480;2023-06-05T04:23:53;17.60;;;4.25;;
37379;SDS011;23252;-33.992;18.480;2023-06-05T04:26:19;26.80;;;4.70;;
37379;SDS011;23252;-33.992;18.480;2023-06-05T04:28:49;33.05;;;4.32;;
37379;SDS011;23252;-33.992;18.480;2023-06-05T04:31:21;20.48;;;4.40;;
37379;SDS011;23252;-33.992;18.480;2023-06-05T04:33:50;18.98;;;4.22;;
37379;SDS011;23252;-33.992;18.480;2023-06-05T04:36:17;19.73;;;4.28;;
37379;SDS011;23252;-33.992;18.480;2023-06-05T04:38:43;21.67;;;4.07;;
37379;SDS011;23252;-33.992;18.480;2023-06-05T04:41:10;20.83;;;4.57;;
37379;SDS011;23252;-33.992;18.480;2023-06-05T04:43:37;25.02;;;4.68;;
37379;SDS011;23252;-33.992;18.480;2023-06-05T04:46:03;21.27;;;3.88;;
37379;SDS011;23252;-33.992;18.480;2023-06-05T04:48:33;20.52;;;4.57;;
37379;SDS011;23252;-33.992;18.480;2023-06-05T04:51:00;16.27;;;4.13;;
37379;SDS011;23252;-33.992;18.480;2023-06-05T04:53:27;14.90;;;4.25;;
37379;SDS011;23252;-33.992;18.480;2023-06-05T04:56:01;14.57;;;4.20;;
37379;SDS011;23252;-33.992;18.480;2023-06-05T04:58:27;16.10;;;4.50;;
37379;SDS011;23252;-33.992;18.480;2023-06-05T05:00:54;19.35;;;4.35;;
37379;SDS011;23252;-33.992;18.480;2023-06-05T05:03:30;14.65;;;4.10;;
37379;SDS011;23252;-33.992;18.480;2023-06-05T05:05:57;22.08;;;4.85;;
37379;SDS011;23252;-33.992;18.480;2023-06-05T05:08:27;27.92;;;4.63;;
37379;SDS011;23252;-33.992;18.480;2023-06-05T05:10:56;21.88;;;3.90;;
37379;SDS011;23252;-33.992;18.480;2023-06-05T05:13:28;23.60;;;3.92;;
37379;SDS011;23252;-33.992;18.480;2023-06-05T05:16:01;20.30;;;3.88;;
37379;SDS011;23252;-33.992;18.480;2023-06-05T05:18:31;21.95;;;4.88;;
37379;SDS011;23252;-33.992;18.480;2023-06-05T05:20:57;22.35;;;4.43;;
37379;SDS011;23252;-33.992;18.480;2023-06-05T05:23:24;22.50;;;4.72;;
37379;SDS011;23252;-33.992;18.480;2023-06-05T05:25:51;19.80;;;4.80;;
37379;SDS011;23252;-33.992;18.480;2023-06-05T05:28:20;19.92;;;4.22;;
37379;SDS011;23252;-33.992;18.480;2023-06-05T05:30:51;19.95;;;4.25;;
37379;SDS011;23252;-33.992;18.480;2023-06-05T05:33:18;29.88;;;4.85;;
37379;SDS011;23252;-33.992;18.480;2023-06-05T05:35:47;29.02;;;4.65;;
37379;SDS011;23252;-33.992;18.480;2023-06-05T05:38:15;23.27;;;4.50;;
37379;SDS011;23252;-33.992;18.480;2023-06-05T05:40:41;20.48;;;3.72;;
37379;SDS011;23252;-33.992;18.480;2023-06-05T05:43:14;24.92;;;4.75;;
37379;SDS011;23252;-33.992;18.480;2023-06-05T05:45:40;21.10;;;4.32;;
37379;SDS011;23252;-33.992;18.480;2023-06-05T05:48:11;23.80;;;4.40;;
37379;SDS011;23252;-33.992;18.480;2023-06-05T05:50:41;24.77;;;4.97;;
37379;SDS011;23252;-33.992;18.480;2023-06-05T05:53:13;25.50;;;5.00;;
37379;SDS011;23252;-33.992;18.480;2023-06-05T05:55:40;35.40;;;6.17;;
37379;SDS011;23252;-33.992;18.480;2023-06-05T05:58:09;24.27;;;5.10;;
37379;SDS011;23252;-33.992;18.480;2023-06-05T06:00:36;20.02;;;5.05;;
37379;SDS011;23252;-33.992;18.480;2023-06-05T06:03:09;27.92;;;4.60;;
37379;SDS011;23252;-33.992;18.480;2023-06-05T06:05:36;31.95;;;5.38;;
37379;SDS011;23252;-33.992;18.480;2023-06-05T06:08:13;34.65;;;5.93;;
37379;SDS011;23252;-33.992;18.480;2023-06-05T06:10:40;33.08;;;5.65;;
37379;SDS011;23252;-33.992;18.480;2023-06-05T06:13:13;27.05;;;5.38;;
37379;SDS011;23252;-33.992;18.480;2023-06-05T06:16:09;20.48;;;4.93;;
37379;SDS011;23252;-33.992;18.480;2023-06-05T06:18:36;32.30;;;5.32;;
37379;SDS011;23252;-33.992;18.480;2023-06-05T06:21:05;26.70;;;5.53;;
37379;SDS011;23252;-33.992;18.480;2023-06-05T06:23:38;28.35;;;5.50;;
37379;SDS011;23252;-33.992;18.480;2023-06-05T06:26:07;22.88;;;5.47;;
37379;SDS011;23252;-33.992;18.480;2023-06-05T06:28:47;26.98;;;5.30;;
37379;SDS011;23252;-33.992;18.480;2023-06-05T06:31:16;21.85;;;5.15;;
37379;SDS011;23252;-33.992;18.480;2023-06-05T06:33:43;24.05;;;5.38;;
37379;SDS011;23252;-33.992;18.480;2023-06-05T06:36:12;26.67;;;5.13;;
37379;SDS011;23252;-33.992;18.480;2023-06-05T06:38:43;26.25;;;4.75;;
37379;SDS011;23252;-33.992;18.480;2023-06-05T06:41:12;23.67;;;5.53;;
37379;SDS011;23252;-33.992;18.480;2023-06-05T06:43:39;36.97;;;4.47;;
37379;SDS011;23252;-33.992;18.480;2023-06-05T06:46:13;32.92;;;4.18;;
37379;SDS011;23252;-33.992;18.480;2023-06-05T06:48:43;28.30;;;4.57;;
37379;SDS011;23252;-33.992;18.480;2023-06-05T06:51:10;23.23;;;5.30;;
37379;SDS011;23252;-33.992;18.480;2023-06-05T06:53:36;28.47;;;5.40;;
37379;SDS011;23252;-33.992;18.480;2023-06-05T06:56:03;28.45;;;5.20;;
37379;SDS011;23252;-33.992;18.480;2023-06-05T06:58:30;28.07;;;5.30;;
37379;SDS011;23252;-33.992;18.480;2023-06-05T07:00:56;23.55;;;5.13;;
37379;SDS011;23252;-33.992;18.480;2023-06-05T07:03:25;29.50;;;6.78;;
37379;SDS011;23252;-33.992;18.480;2023-06-05T07:05:51;32.67;;;6.75;;
37379;SDS011;23252;-33.992;18.480;2023-06-05T07:08:18;23.10;;;7.47;;
37379;SDS011;23252;-33.992;18.480;2023-06-05T07:10:45;19.15;;;5.10;;
37379;SDS011;23252;-33.992;18.480;2023-06-05T07:13:12;27.00;;;6.67;;
37379;SDS011;23252;-33.992;18.480;2023-06-05T07:15:38;26.67;;;6.97;;
37379;SDS011;23252;-33.992;18.480;2023-06-05T07:18:05;28.97;;;6.57;;
37379;SDS011;23252;-33.992;18.480;2023-06-05T07:20:31;26.30;;;6.00;;
37379;SDS011;23252;-33.992;18.480;2023-06-05T07:22:59;21.10;;;4.80;;
37379;SDS011;23252;-33.992;18.480;2023-06-05T07:25:26;26.42;;;4.80;;
37379;SDS011;23252;-33.992;18.480;2023-06-05T07:30:20;25.48;;;4.55;;
37379;SDS011;23252;-33.992;18.480;2023-06-05T07:32:47;17.40;;;3.85;;
37379;SDS011;23252;-33.992;18.480;2023-06-05T07:35:13;23.47;;;4.30;;
37379;SDS011;23252;-33.992;18.480;2023-06-05T07:37:40;21.40;;;4.70;;
37379;SDS011;23252;-33.992;18.480;2023-06-05T07:40:07;19.83;;;4.68;;
37379;SDS011;23252;-33.992;18.480;2023-06-05T07:42:34;23.25;;;4.57;;
37379;SDS011;23252;-33.992;18.480;2023-06-05T07:45:00;15.45;;;4.00;;
37379;SDS011;23252;-33.992;18.480;2023-06-05T07:47:27;17.03;;;4.63;;
37379;SDS011;23252;-33.992;18.480;2023-06-05T07:49:57;20.58;;;4.57;;
37379;SDS011;23252;-33.992;18.480;2023-06-05T07:52:24;25.25;;;5.35;;
37379;SDS011;23252;-33.992;18.480;2023-06-05T07:54:52;16.70;;;3.75;;
37379;SDS011;23252;-33.992;18.480;2023-06-05T07:57:19;19.35;;;4.38;;
37379;SDS011;23252;-33.992;18.480;2023-06-05T07:59:46;18.27;;;3.63;;
37379;SDS011;23252;-33.992;18.480;2023-06-05T08:02:14;21.27;;;5.65;;
37379;SDS011;23252;-33.992;18.480;2023-06-05T08:04:41;21.77;;;4.20;;
37379;SDS011;23252;-33.992;18.480;2023-06-05T08:07:08;18.83;;;3.63;;
37379;SDS011;23252;-33.992;18.480;2023-06-05T08:09:34;14.43;;;3.67;;
37379;SDS011;23252;-33.992;18.480;2023-06-05T08:12:04;16.67;;;3.67;;
37379;SDS011;23252;-33.992;18.480;2023-06-05T08:14:32;21.33;;;3.95;;
37379;SDS011;23252;-33.992;18.480;2023-06-05T08:17:00;22.90;;;4.25;;
37379;SDS011;23252;-33.992;18.480;2023-06-05T08:19:27;22.00;;;3.90;;
37379;SDS011;23252;-33.992;18.480;2023-06-05T08:21:53;20.63;;;5.13;;
37379;SDS011;23252;-33.992;18.480;2023-06-05T08:24:21;21.85;;;4.30;;
37379;SDS011;23252;-33.992;18.480;2023-06-05T08:26:48;24.67;;;5.65;;
37379;SDS011;23252;-33.992;18.480;2023-06-05T08:29:20;26.42;;;5.00;;
37379;SDS011;23252;-33.992;18.480;2023-06-05T08:31:47;25.27;;;4.47;;
37379;SDS011;23252;-33.992;18.480;2023-06-05T08:34:13;21.00;;;5.00;;
37379;SDS011;23252;-33.992;18.480;2023-06-05T08:36:40;22.98;;;5.43;;
37379;SDS011;23252;-33.992;18.480;2023-06-05T08:39:07;22.20;;;4.30;;
37379;SDS011;23252;-33.992;18.480;2023-06-05T08:41:34;23.15;;;5.03;;
37379;SDS011;23252;-33.992;18.480;2023-06-05T08:44:03;20.92;;;3.92;;
37379;SDS011;23252;-33.992;18.480;2023-06-05T08:46:29;23.02;;;5.57;;
37379;SDS011;23252;-33.992;18.480;2023-06-05T08:48:57;18.30;;;3.95;;
37379;SDS011;23252;-33.992;18.480;2023-06-05T08:51:24;23.63;;;5.45;;
37379;SDS011;23252;-33.992;18.480;2023-06-05T08:53:54;20.55;;;4.28;;
37379;SDS011;23252;-33.992;18.480;2023-06-05T08:56:23;20.13;;;4.65;;
37379;SDS011;23252;-33.992;18.480;2023-06-05T08:58:51;21.40;;;3.92;;
37379;SDS011;23252;-33.992;18.480;2023-06-05T09:01:20;25.85;;;3.75;;
37379;SDS011;23252;-33.992;18.480;2023-06-05T09:03:46;15.45;;;4.05;;
37379;SDS011;23252;-33.992;18.480;2023-06-05T09:06:13;21.08;;;4.13;;
37379;SDS011;23252;-33.992;18.480;2023-06-05T09:08:39;21.10;;;3.60;;
37379;SDS011;23252;-33.992;18.480;2023-06-05T09:13:57;19.75;;;3.65;;
37379;SDS011;23252;-33.992;18.480;2023-06-05T09:16:43;23.50;;;4.22;;
37379;SDS011;23252;-33.992;18.480;2023-06-05T09:19:12;15.63;;;3.78;;
37379;SDS011;23252;-33.992;18.480;2023-06-05T09:21:39;27.17;;;7.70;;
37379;SDS011;23252;-33.992;18.480;2023-06-05T09:29:34;31.55;;;5.63;;
37379;SDS011;23252;-33.992;18.480;2023-06-05T09:34:34;22.48;;;3.83;;
37379;SDS011;23252;-33.992;18.480;2023-06-05T09:37:08;19.65;;;3.95;;
37379;SDS011;23252;-33.992;18.480;2023-06-05T09:39:36;18.45;;;3.22;;
37379;SDS011;23252;-33.992;18.480;2023-06-05T09:42:04;16.15;;;3.08;;
37379;SDS011;23252;-33.992;18.480;2023-06-05T09:44:32;16.02;;;2.83;;
37379;SDS011;23252;-33.992;18.480;2023-06-05T09:47:00;15.00;;;3.33;;
37379;SDS011;23252;-33.992;18.480;2023-06-05T09:52:06;12.05;;;2.72;;
37379;SDS011;23252;-33.992;18.480;2023-06-05T09:54:35;21.77;;;3.83;;
37379;SDS011;23252;-33.992;18.480;2023-06-05T09:57:03;16.23;;;3.08;;
37379;SDS011;23252;-33.992;18.480;2023-06-05T09:59:32;14.25;;;2.58;;
37379;SDS011;23252;-33.992;18.480;2023-06-05T10:02:02;18.35;;;3.05;;
37379;SDS011;23252;-33.992;18.480;2023-06-05T10:04:32;14.52;;;3.08;;
37379;SDS011;23252;-33.992;18.480;2023-06-05T10:07:04;12.40;;;2.55;;
37379;SDS011;23252;-33.992;18.480;2023-06-05T10:09:31;14.57;;;2.63;;
37379;SDS011;23252;-33.992;18.480;2023-06-05T10:11:58;13.82;;;2.47;;
37379;SDS011;23252;-33.992;18.480;2023-06-05T10:14:25;8.48;;;2.55;;
37379;SDS011;23252;-33.992;18.480;2023-06-05T10:16:52;14.70;;;2.58;;
37379;SDS011;23252;-33.992;18.480;2023-06-05T10:19:20;13.85;;;2.58;;
37379;SDS011;23252;-33.992;18.480;2023-06-05T10:21:47;32.45;;;19.83;;
37379;SDS011;23252;-33.992;18.480;2023-06-05T10:26:54;14.05;;;3.97;;
37379;SDS011;23252;-33.992;18.480;2023-06-05T10:32:03;21.92;;;2.97;;
37379;SDS011;23252;-33.992;18.480;2023-06-05T10:34:55;11.35;;;3.10;;
37379;SDS011;23252;-33.992;18.480;2023-06-05T10:40:06;13.05;;;1.95;;
37379;SDS011;23252;-33.992;18.480;2023-06-05T10:42:34;16.52;;;3.08;;
37379;SDS011;23252;-33.992;18.480;2023-06-05T10:45:02;19.27;;;3.17;;
37379;SDS011;23252;-33.992;18.480;2023-06-05T10:52:49;11.60;;;3.35;;
37379;SDS011;23252;-33.992;18.480;2023-06-05T10:55:16;23.35;;;3.40;;
37379;SDS011;23252;-33.992;18.480;2023-06-05T11:00:39;26.85;;;3.13;;
37379;SDS011;23252;-33.992;18.480;2023-06-05T11:03:54;13.00;;;2.53;;
37379;SDS011;23252;-33.992;18.480;2023-06-05T11:06:22;22.98;;;4.30;;
37379;SDS011;23252;-33.992;18.480;2023-06-05T11:17:29;14.80;;;3.50;;
37379;SDS011;23252;-33.992;18.480;2023-06-05T11:20:08;19.20;;;3.22;;
37379;SDS011;23252;-33.992;18.480;2023-06-05T11:27:50;19.92;;;3.25;;
37379;SDS011;23252;-33.992;18.480;2023-06-05T11:30:19;16.30;;;3.25;;
37379;SDS011;23252;-33.992;18.480;2023-06-05T11:32:46;15.00;;;3.55;;
37379;SDS011;23252;-33.992;18.480;2023-06-05T11:35:13;17.38;;;3.20;;
37379;SDS011;23252;-33.992;18.480;2023-06-05T11:37:40;17.80;;;3.47;;
37379;SDS011;23252;-33.992;18.480;2023-06-05T11:40:07;14.40;;;2.92;;
37379;SDS011;23252;-33.992;18.480;2023-06-05T11:42:35;12.55;;;2.65;;
37379;SDS011;23252;-33.992;18.480;2023-06-05T11:45:09;14.63;;;3.15;;
37379;SDS011;23252;-33.992;18.480;2023-06-05T11:47:37;10.00;;;2.30;;
37379;SDS011;23252;-33.992;18.480;2023-06-05T11:50:11;12.82;;;2.65;;
37379;SDS011;23252;-33.992;18.480;2023-06-05T11:52:43;12.25;;;2.30;;
37379;SDS011;23252;-33.992;18.480;2023-06-05T11:55:10;9.02;;;2.03;;
37379;SDS011;23252;-33.992;18.480;2023-06-05T11:57:42;8.30;;;2.00;;
37379;SDS011;23252;-33.992;18.480;2023-06-05T12:00:10;11.82;;;2.72;;
37379;SDS011;23252;-33.992;18.480;2023-06-05T12:02:38;10.63;;;2.28;;
37379;SDS011;23252;-33.992;18.480;2023-06-05T12:05:08;15.55;;;2.83;;
37379;SDS011;23252;-33.992;18.480;2023-06-05T12:10:05;9.40;;;2.25;;
37379;SDS011;23252;-33.992;18.480;2023-06-05T12:12:34;18.88;;;3.83;;
37379;SDS011;23252;-33.992;18.480;2023-06-05T12:15:14;10.70;;;2.50;;
37379;SDS011;23252;-33.992;18.480;2023-06-05T12:17:48;16.50;;;3.13;;
37379;SDS011;23252;-33.992;18.480;2023-06-05T12:20:16;11.32;;;2.20;;
37379;SDS011;23252;-33.992;18.480;2023-06-05T12:22:43;12.52;;;1.90;;
37379;SDS011;23252;-33.992;18.480;2023-06-05T12:27:47;12.13;;;2.30;;
37379;SDS011;23252;-33.992;18.480;2023-06-05T12:30:14;10.18;;;2.60;;
37379;SDS011;23252;-33.992;18.480;2023-06-05T12:32:42;18.38;;;2.40;;
37379;SDS011;23252;-33.992;18.480;2023-06-05T12:35:18;8.90;;;2.72;;
37379;SDS011;23252;-33.992;18.480;2023-06-05T12:37:46;16.80;;;2.22;;
37379;SDS011;23252;-33.992;18.480;2023-06-05T12:40:14;11.95;;;1.67;;
37379;SDS011;23252;-33.992;18.480;2023-06-05T12:42:46;10.90;;;1.75;;
37379;SDS011;23252;-33.992;18.480;2023-06-05T12:45:13;13.68;;;2.60;;
37379;SDS011;23252;-33.992;18.480;2023-06-05T12:47:41;10.00;;;2.15;;
37379;SDS011;23252;-33.992;18.480;2023-06-05T12:50:09;16.13;;;3.38;;
37379;SDS011;23252;-33.992;18.480;2023-06-05T12:52:38;15.73;;;2.85;;
37379;SDS011;23252;-33.992;18.480;2023-06-05T12:55:06;13.00;;;2.78;;
37379;SDS011;23252;-33.992;18.480;2023-06-05T13:00:02;13.98;;;2.80;;
37379;SDS011;23252;-33.992;18.480;2023-06-05T13:02:41;15.60;;;3.10;;
37379;SDS011;23252;-33.992;18.480;2023-06-05T13:05:13;18.90;;;2.60;;
37379;SDS011;23252;-33.992;18.480;2023-06-05T13:10:07;12.32;;;2.35;;
37379;SDS011;23252;-33.992;18.480;2023-06-05T13:15:01;13.35;;;2.88;;
37379;SDS011;23252;-33.992;18.480;2023-06-05T13:17:32;15.07;;;3.00;;
37379;SDS011;23252;-33.992;18.480;2023-06-05T13:20:01;13.38;;;3.13;;
37379;SDS011;23252;-33.992;18.480;2023-06-05T13:22:36;20.10;;;4.47;;
37379;SDS011;23252;-33.992;18.480;2023-06-05T13:25:04;13.80;;;3.80;;
37379;SDS011;23252;-33.992;18.480;2023-06-05T13:27:32;13.85;;;3.60;;
37379;SDS011;23252;-33.992;18.480;2023-06-05T13:29:59;13.27;;;3.40;;
37379;SDS011;23252;-33.992;18.480;2023-06-05T13:32:25;14.02;;;3.00;;
37379;SDS011;23252;-33.992;18.480;2023-06-05T13:34:52;13.20;;;3.88;;
37379;SDS011;23252;-33.992;18.480;2023-06-05T13:37:19;12.23;;;2.85;;
37379;SDS011;23252;-33.992;18.480;2023-06-05T13:39:46;13.65;;;2.88;;
37379;SDS011;23252;-33.992;18.480;2023-06-05T13:42:12;8.57;;;2.70;;
37379;SDS011;23252;-33.992;18.480;2023-06-05T13:44:39;12.68;;;2.53;;
37379;SDS011;23252;-33.992;18.480;2023-06-05T13:47:06;8.27;;;1.93;;
37379;SDS011;23252;-33.992;18.480;2023-06-05T13:49:34;11.18;;;3.00;;
37379;SDS011;23252;-33.992;18.480;2023-06-05T13:52:01;11.67;;;2.87;;
37379;SDS011;23252;-33.992;18.480;2023-06-05T13:54:27;8.70;;;2.15;;
37379;SDS011;23252;-33.992;18.480;2023-06-05T13:56:54;14.03;;;3.77;;
37379;SDS011;23252;-33.992;18.480;2023-06-05T13:59:20;17.57;;;3.57;;
37379;SDS011;23252;-33.992;18.480;2023-06-05T14:01:47;16.93;;;3.80;;
37379;SDS011;23252;-33.992;18.480;2023-06-05T14:04:13;16.80;;;2.90;;
37379;SDS011;23252;-33.992;18.480;2023-06-05T14:06:40;10.50;;;2.73;;
37379;SDS011;23252;-33.992;18.480;2023-06-05T14:09:07;14.32;;;2.75;;
37379;SDS011;23252;-33.992;18.480;2023-06-05T14:11:34;17.83;;;3.27;;
37379;SDS011;23252;-33.992;18.480;2023-06-05T14:14:02;8.75;;;2.53;;
37379;SDS011;23252;-33.992;18.480;2023-06-05T14:16:28;14.90;;;2.93;;
37379;SDS011;23252;-33.992;18.480;2023-06-05T14:18:55;13.57;;;2.42;;
37379;SDS011;23252;-33.992;18.480;2023-06-05T14:21:22;6.30;;;2.23;;
37379;SDS011;23252;-33.992;18.480;2023-06-05T14:23:48;16.05;;;3.08;;
37379;SDS011;23252;-33.992;18.480;2023-06-05T14:26:15;15.20;;;3.03;;
37379;SDS011;23252;-33.992;18.480;2023-06-05T14:28:41;10.60;;;2.50;;
37379;SDS011;23252;-33.992;18.480;2023-06-05T14:31:08;11.77;;;3.00;;
37379;SDS011;23252;-33.992;18.480;2023-06-05T14:33:34;17.95;;;3.53;;
37379;SDS011;23252;-33.992;18.480;2023-06-05T14:36:01;16.20;;;3.25;;
37379;SDS011;23252;-33.992;18.480;2023-06-05T14:38:29;10.25;;;2.90;;
37379;SDS011;23252;-33.992;18.480;2023-06-05T14:40:56;18.30;;;3.00;;
37379;SDS011;23252;-33.992;18.480;2023-06-05T14:43:23;12.98;;;3.13;;
37379;SDS011;23252;-33.992;18.480;2023-06-05T14:45:51;13.80;;;3.50;;
37379;SDS011;23252;-33.992;18.480;2023-06-05T14:48:18;12.47;;;3.23;;
37379;SDS011;23252;-33.992;18.480;2023-06-05T14:50:44;15.30;;;2.83;;
37379;SDS011;23252;-33.992;18.480;2023-06-05T14:55:38;12.30;;;3.20;;
37379;SDS011;23252;-33.992;18.480;2023-06-05T14:58:08;13.13;;;2.55;;
37379;SDS011;23252;-33.992;18.480;2023-06-05T15:00:36;13.63;;;3.30;;
37379;SDS011;23252;-33.992;18.480;2023-06-05T15:05:30;17.23;;;3.65;;
37379;SDS011;23252;-33.992;18.480;2023-06-05T15:07:57;12.13;;;3.75;;
37379;SDS011;23252;-33.992;18.480;2023-06-05T15:12:52;13.35;;;3.75;;
37379;SDS011;23252;-33.992;18.480;2023-06-05T15:15:25;13.75;;;3.70;;
37379;SDS011;23252;-33.992;18.480;2023-06-05T15:17:52;16.17;;;4.03;;
37379;SDS011;23252;-33.992;18.480;2023-06-05T15:20:19;13.52;;;4.03;;
37379;SDS011;23252;-33.992;18.480;2023-06-05T15:22:46;12.65;;;4.40;;
37379;SDS011;23252;-33.992;18.480;2023-06-05T15:25:13;17.83;;;4.55;;
37379;SDS011;23252;-33.992;18.480;2023-06-05T15:27:39;14.45;;;5.25;;
37379;SDS011;23252;-33.992;18.480;2023-06-05T15:32:33;18.15;;;5.28;;
37379;SDS011;23252;-33.992;18.480;2023-06-05T15:35:00;14.83;;;5.70;;
37379;SDS011;23252;-33.992;18.480;2023-06-05T15:37:26;19.67;;;6.77;;
37379;SDS011;23252;-33.992;18.480;2023-06-05T15:39:53;17.65;;;6.20;;